Sant Joan, Spain

7:08 AM CET on February 09, 2016 (GMT +0100)
IIBSANTJ2 | | Change Station
CLOSE
Current Station
Personal Weather Station
Location: Sant Joan, IB
Elevation: 446 ft
Nearby Weather Stations

Elev 446 ft 39.60 °N, 3.04 °E | Updated 20 seconds ago

Partly Cloudy
Partly Cloudy
55.6 °F
Feels Like 55.6 °F
N
9.9
Wind Variable Wind from WSW
Gusts 15.9 mph

Today
High -- | Low -- °F
--% Chance of Precip.
Yesterday
High -- | Low -- °F
Precip. -- in
Pressure 30.09 in
Visibility 6.2 miles
Clouds Few 2200 ft
Dew Point 50 °F
Humidity 83%
Rainfall Not available.
Snow Depth Not available.
7:48 AM 6:16 PM
New Moon, 1% visible
METAR LEPA 090600Z 26011KT 9999 FEW022 14/10 Q1019 NOSIG
Pressure 30.09 in
Visibility 6.2 miles
Clouds Few 2200 ft
Dew Point 50 °F
Humidity 83%
Rainfall Not available.
Snow Depth Not available.
7:48 AM 6:16 PM
New Moon, 1% visible
METAR LEPA 090600Z 26011KT 9999 FEW022 14/10 Q1019 NOSIG

10-Day Weather Forecast

Almanac

Astronomy

Feb. 09, 2016 Rise Set
Actual Time
Civil Twilight
Nautical Twilight
Astronomical Twilight
Moon
Length of Visible Light
Length of Day
Tomorrow will be .
, % of the Moon is Illuminated

Today's Extremes

Country Highs Country Lows

Community

WunderPhotos

Upload Photos

1,891,570 photos uploaded!

WunderBlog® & News

Nearby

Air Quality

  Air Quality AQ Index Pollutant
Not available.

Snow Depth

Station Depth Elevation

Earthquake Activity

City Distance Mag. Time & Date
Minimum magnitude displayed is 2.5.

Coastal Water Temperatures

Place Temperature

Stations

Nearby Weather Stations

Station Location Temp. Windchill Dew Point Humidity Wind Precip. Elev Updated Type